Bastian, VA (24314)

1:53 PM EDT on May 29, 2015 (GMT -0400)
South Bluefield | | Change Station
CLOSE
Current Station
Personal Weather Station
Location: Bluefield, WV
Elevation: 2700 ft
Nearby Weather Stations

Elev 2700 ft 37.26 °N, 81.20 °W | Updated 0 second ago

Partly Cloudy
Partly Cloudy
81.8 °F
Feels Like 82 °F
N
4.0
Wind Variable Wind from WSW
Gusts 6.0 mph

Today
High -- | Low -- °F
--% Chance of Precip.
Yesterday
High -- | Low -- °F
Precip. -- in
6:07 AM 8:37 PM
Waxing Gibbous, 85% visible
Pressure 30.20 in
Visibility 10.0 miles
Clouds Few 3600 ft
Heat Index 82 °F
Dew Point 59 °F
Humidity 46%
Rainfall 0.00 in
Snow Depth Not available.
UV 12 out of 12
Pollen 5.90 out of 12
Air Quality Not available.
Flu Activity No Activity
METAR KBLF 291652Z AUTO VRB04G14KT 10SM FEW036 27/16 A3031 RMK AO2 SLP226 T02670156

More Conditions Fewer Conditions

Pressure 30.20 in
Visibility 10.0 miles
Clouds Few 3600 ft
Heat Index 82 °F
Dew Point 59 °F
Humidity 46%
Rainfall 0.00 in
Snow Depth Not available.
UV 12 out of 12
Pollen 5.90 out of 12
Air Quality Not available.
Flu Activity No Activity
METAR KBLF 291652Z AUTO VRB04G14KT 10SM FEW036 27/16 A3031 RMK AO2 SLP226 T02670156

More Conditions Fewer Conditions

10-Day Weather Forecast

Almanac

Astronomy

May. 29, 2015 Rise Set
Actual Time
Civil Twilight
Nautical Twilight
Astronomical Twilight
Moon
Length of Visible Light
Length of Day
Tomorrow will be .
, % of the Moon is Illuminated

Today's Extremes

State Highs State Lows

Community

WunderPhotos

Upload Photos

1,825,306 photos uploaded!

WunderBlogs® & News

Nearby

Air Quality

  Air Quality AQ Index Pollutant
Not available.

Snow Depth

Station Depth Elevation

Earthquake Activity

City Distance Mag. Time & Date
Minimum magnitude displayed is 2.5.

Coastal Water Temperatures

Place Temperature

Stations

Nearby Weather Stations

Station Location Temp. Windchill Dew Point Humidity Wind Precip. Elev Updated Type